sensor_id;sensor_type;location;lat;lon;timestamp;pressure;altitude;pressure_sealevel;temperature;humidity
13968;BME280;39536;52.198;9.920;2023-09-12T00:00:22;100339.81;;;22.95;100.00
13968;BME280;39536;52.198;9.920;2023-09-12T00:02:49;100342.81;;;22.81;100.00
13968;BME280;39536;52.198;9.920;2023-09-12T00:05:16;100347.59;;;22.56;100.00
13968;BME280;39536;52.198;9.920;2023-09-12T00:07:42;100344.13;;;22.35;100.00
13968;BME280;39536;52.198;9.920;2023-09-12T00:10:09;100331.63;;;22.47;100.00
13968;BME280;39536;52.198;9.920;2023-09-12T00:12:37;100337.03;;;22.45;100.00
13968;BME280;39536;52.198;9.920;2023-09-12T00:15:04;100322.56;;;22.49;100.00
13968;BME280;39536;52.198;9.920;2023-09-12T00:17:31;100313.97;;;22.76;100.00
13968;BME280;39536;52.198;9.920;2023-09-12T00:19:58;100302.75;;;22.94;100.00
13968;BME280;39536;52.198;9.920;2023-09-12T00:22:24;100301.94;;;23.03;100.00
13968;BME280;39536;52.198;9.920;2023-09-12T00:24:51;100302.22;;;23.00;100.00
13968;BME280;39536;52.198;9.920;2023-09-12T00:27:18;100321.00;;;22.77;100.00
13968;BME280;39536;52.198;9.920;2023-09-12T00:29:46;100338.53;;;22.38;100.00
13968;BME280;39536;52.198;9.920;2023-09-12T00:32:12;100336.97;;;22.14;100.00
13968;BME280;39536;52.198;9.920;2023-09-12T00:34:39;100316.91;;;22.01;100.00
13968;BME280;39536;52.198;9.920;2023-09-12T00:37:05;100308.19;;;22.10;100.00
13968;BME280;39536;52.198;9.920;2023-09-12T00:39:32;100302.59;;;22.24;100.00
13968;BME280;39536;52.198;9.920;2023-09-12T00:41:59;100306.28;;;22.43;100.00
13968;BME280;39536;52.198;9.920;2023-09-12T00:44:25;100297.16;;;22.56;100.00
13968;BME280;39536;52.198;9.920;2023-09-12T00:46:54;100304.88;;;22.39;100.00
13968;BME280;39536;52.198;9.920;2023-09-12T00:49:23;100302.53;;;22.45;100.00
13968;BME280;39536;52.198;9.920;2023-09-12T00:51:51;100290.09;;;22.46;100.00
13968;BME280;39536;52.198;9.920;2023-09-12T00:54:18;100286.91;;;22.52;100.00
13968;BME280;39536;52.198;9.920;2023-09-12T00:56:45;100291.00;;;22.56;100.00
13968;BME280;39536;52.198;9.920;2023-09-12T00:59:13;100289.31;;;22.55;100.00
13968;BME280;39536;52.198;9.920;2023-09-12T01:01:40;100299.34;;;22.51;100.00
13968;BME280;39536;52.198;9.920;2023-09-12T01:04:09;100304.09;;;22.48;100.00
13968;BME280;39536;52.198;9.920;2023-09-12T01:06:37;100294.94;;;22.31;100.00
13968;BME280;39536;52.198;9.920;2023-09-12T01:09:04;100286.19;;;22.40;100.00
13968;BME280;39536;52.198;9.920;2023-09-12T01:11:31;100289.94;;;22.38;100.00
13968;BME280;39536;52.198;9.920;2023-09-12T01:13:58;100295.56;;;22.23;100.00
13968;BME280;39536;52.198;9.920;2023-09-12T01:16:24;100300.75;;;22.25;100.00
13968;BME280;39536;52.198;9.920;2023-09-12T01:18:51;100286.75;;;22.44;100.00
13968;BME280;39536;52.198;9.920;2023-09-12T01:21:38;100291.94;;;22.55;100.00
13968;BME280;39536;52.198;9.920;2023-09-12T01:24:32;100290.72;;;22.59;100.00
13968;BME280;39536;52.198;9.920;2023-09-12T01:27:21;100280.38;;;22.56;100.00
13968;BME280;39536;52.198;9.920;2023-09-12T01:29:52;100278.44;;;22.68;100.00
13968;BME280;39536;52.198;9.920;2023-09-12T01:32:21;100285.47;;;22.69;100.00
13968;BME280;39536;52.198;9.920;2023-09-12T01:34:48;100292.47;;;22.79;100.00
13968;BME280;39536;52.198;9.920;2023-09-12T01:37:14;100287.19;;;22.89;100.00
13968;BME280;39536;52.198;9.920;2023-09-12T01:39:41;100276.72;;;22.88;100.00
13968;BME280;39536;52.198;9.920;2023-09-12T01:42:11;100274.94;;;22.98;100.00
13968;BME280;39536;52.198;9.920;2023-09-12T01:44:43;100280.28;;;23.08;100.00
13968;BME280;39536;52.198;9.920;2023-09-12T01:47:11;100283.09;;;23.16;100.00
13968;BME280;39536;52.198;9.920;2023-09-12T01:49:39;100285.06;;;23.23;100.00
13968;BME280;39536;52.198;9.920;2023-09-12T01:52:09;100281.84;;;23.29;100.00
13968;BME280;39536;52.198;9.920;2023-09-12T01:54:37;100283.53;;;23.31;100.00
13968;BME280;39536;52.198;9.920;2023-09-12T01:57:05;100284.78;;;23.26;100.00
13968;BME280;39536;52.198;9.920;2023-09-12T01:59:31;100295.97;;;23.30;100.00
13968;BME280;39536;52.198;9.920;2023-09-12T02:02:00;100294.19;;;23.31;100.00
13968;BME280;39536;52.198;9.920;2023-09-12T02:04:26;100293.03;;;23.33;100.00
13968;BME280;39536;52.198;9.920;2023-09-12T02:06:53;100293.75;;;23.35;100.00
13968;BME280;39536;52.198;9.920;2023-09-12T02:09:20;100306.19;;;23.25;100.00
13968;BME280;39536;52.198;9.920;2023-09-12T02:11:47;100301.72;;;23.25;100.00
13968;BME280;39536;52.198;9.920;2023-09-12T02:14:14;100300.44;;;23.20;100.00
13968;BME280;39536;52.198;9.920;2023-09-12T02:16:41;100309.78;;;23.04;100.00
13968;BME280;39536;52.198;9.920;2023-09-12T02:19:09;100315.16;;;22.83;100.00
13968;BME280;39536;52.198;9.920;2023-09-12T02:21:35;100326.19;;;22.89;100.00
13968;BME280;39536;52.198;9.920;2023-09-12T02:24:02;100330.63;;;22.78;100.00
13968;BME280;39536;52.198;9.920;2023-09-12T02:26:29;100344.53;;;22.61;100.00
13968;BME280;39536;52.198;9.920;2023-09-12T02:29:01;100350.00;;;22.39;100.00
13968;BME280;39536;52.198;9.920;2023-09-12T02:31:27;100353.75;;;22.15;100.00
13968;BME280;39536;52.198;9.920;2023-09-12T02:33:54;100344.59;;;21.87;100.00
13968;BME280;39536;52.198;9.920;2023-09-12T02:36:22;100343.41;;;21.80;100.00
13968;BME280;39536;52.198;9.920;2023-09-12T02:38:49;100334.75;;;21.99;100.00
13968;BME280;39536;52.198;9.920;2023-09-12T02:41:15;100345.78;;;22.15;100.00
13968;BME280;39536;52.198;9.920;2023-09-12T02:43:42;100347.50;;;22.16;100.00
13968;BME280;39536;52.198;9.920;2023-09-12T02:46:09;100346.03;;;22.12;100.00
13968;BME280;39536;52.198;9.920;2023-09-12T02:48:35;100348.13;;;22.29;100.00
13968;BME280;39536;52.198;9.920;2023-09-12T02:51:02;100356.50;;;22.25;100.00
13968;BME280;39536;52.198;9.920;2023-09-12T02:53:30;100355.50;;;22.26;100.00
13968;BME280;39536;52.198;9.920;2023-09-12T02:55:56;100356.66;;;22.33;100.00
13968;BME280;39536;52.198;9.920;2023-09-12T02:58:23;100370.78;;;22.01;100.00
13968;BME280;39536;52.198;9.920;2023-09-12T03:00:50;100379.94;;;21.76;100.00
13968;BME280;39536;52.198;9.920;2023-09-12T03:03:19;100390.38;;;21.57;100.00
13968;BME280;39536;52.198;9.920;2023-09-12T03:05:46;100391.13;;;21.36;100.00
13968;BME280;39536;52.198;9.920;2023-09-12T03:08:13;100395.09;;;21.19;100.00
13968;BME280;39536;52.198;9.920;2023-09-12T03:10:41;100396.16;;;21.06;100.00
13968;BME280;39536;52.198;9.920;2023-09-12T03:13:07;100390.53;;;21.21;100.00
13968;BME280;39536;52.198;9.920;2023-09-12T03:15:37;100381.84;;;21.42;100.00
13968;BME280;39536;52.198;9.920;2023-09-12T03:18:04;100378.94;;;21.45;100.00
13968;BME280;39536;52.198;9.920;2023-09-12T03:20:31;100377.28;;;21.44;100.00
13968;BME280;39536;52.198;9.920;2023-09-12T03:22:58;100367.75;;;21.41;100.00
13968;BME280;39536;52.198;9.920;2023-09-12T03:25:24;100364.31;;;21.62;100.00
13968;BME280;39536;52.198;9.920;2023-09-12T03:27:52;100368.34;;;21.77;100.00
13968;BME280;39536;52.198;9.920;2023-09-12T03:30:20;100370.72;;;21.91;100.00
13968;BME280;39536;52.198;9.920;2023-09-12T03:32:46;100364.16;;;22.07;100.00
13968;BME280;39536;52.198;9.920;2023-09-12T03:35:13;100361.47;;;22.18;100.00
13968;BME280;39536;52.198;9.920;2023-09-12T03:37:40;100362.91;;;22.22;100.00
13968;BME280;39536;52.198;9.920;2023-09-12T03:40:09;100367.69;;;22.28;100.00
13968;BME280;39536;52.198;9.920;2023-09-12T03:42:36;100373.00;;;22.28;100.00
13968;BME280;39536;52.198;9.920;2023-09-12T03:45:05;100378.72;;;22.33;100.00
13968;BME280;39536;52.198;9.920;2023-09-12T03:47:32;100382.88;;;22.26;100.00
13968;BME280;39536;52.198;9.920;2023-09-12T03:49:59;100383.28;;;22.22;100.00
13968;BME280;39536;52.198;9.920;2023-09-12T03:52:25;100379.91;;;22.20;100.00
13968;BME280;39536;52.198;9.920;2023-09-12T03:54:52;100386.63;;;21.91;100.00
13968;BME280;39536;52.198;9.920;2023-09-12T03:57:19;100399.94;;;21.80;100.00
13968;BME280;39536;52.198;9.920;2023-09-12T03:59:45;100422.78;;;21.60;100.00
13968;BME280;39536;52.198;9.920;2023-09-12T04:02:14;100432.78;;;21.34;100.00
13968;BME280;39536;52.198;9.920;2023-09-12T04:04:40;100455.53;;;21.26;100.00
13968;BME280;39536;52.198;9.920;2023-09-12T04:07:07;100463.34;;;21.05;100.00
13968;BME280;39536;52.198;9.920;2023-09-12T04:09:34;100464.31;;;20.81;100.00
13968;BME280;39536;52.198;9.920;2023-09-12T04:12:01;100447.78;;;20.77;100.00
13968;BME280;39536;52.198;9.920;2023-09-12T04:29:51;100391.53;;;21.75;100.00
13968;BME280;39536;52.198;9.920;2023-09-12T04:32:17;100378.94;;;21.88;100.00
13968;BME280;39536;52.198;9.920;2023-09-12T04:34:48;100376.28;;;21.88;100.00
13968;BME280;39536;52.198;9.920;2023-09-12T04:37:15;100386.25;;;21.96;100.00
13968;BME280;39536;52.198;9.920;2023-09-12T04:39:42;100380.56;;;22.01;100.00
13968;BME280;39536;52.198;9.920;2023-09-12T04:42:08;100370.78;;;22.01;100.00
13968;BME280;39536;52.198;9.920;2023-09-12T04:44:35;100376.91;;;22.13;100.00
13968;BME280;39536;52.198;9.920;2023-09-12T04:47:03;100379.91;;;22.20;100.00
13968;BME280;39536;52.198;9.920;2023-09-12T04:49:30;100375.44;;;22.20;100.00
13968;BME280;39536;52.198;9.920;2023-09-12T04:51:57;100360.66;;;22.27;100.00
13968;BME280;39536;52.198;9.920;2023-09-12T04:54:23;100353.19;;;22.32;100.00
13968;BME280;39536;52.198;9.920;2023-09-12T04:56:50;100351.25;;;22.34;100.00
13968;BME280;39536;52.198;9.920;2023-09-12T05:19:10;100350.09;;;22.89;100.00
13968;BME280;39536;52.198;9.920;2023-09-12T05:21:37;100351.09;;;22.88;100.00
13968;BME280;39536;52.198;9.920;2023-09-12T05:24:04;100360.25;;;22.74;100.00
13968;BME280;39536;52.198;9.920;2023-09-12T05:26:31;100377.22;;;22.62;100.00
13968;BME280;39536;52.198;9.920;2023-09-12T05:28:58;100409.38;;;22.38;100.00
13968;BME280;39536;52.198;9.920;2023-09-12T05:31:25;100409.72;;;22.12;100.00
13968;BME280;39536;52.198;9.920;2023-09-12T05:33:51;100410.06;;;22.19;100.00
13968;BME280;39536;52.198;9.920;2023-09-12T05:36:19;100410.72;;;22.32;100.00
13968;BME280;39536;52.198;9.920;2023-09-12T05:38:46;100418.97;;;22.18;100.00
13968;BME280;39536;52.198;9.920;2023-09-12T05:41:13;100437.78;;;22.14;100.00
13968;BME280;39536;52.198;9.920;2023-09-12T05:43:39;100441.31;;;22.15;100.00
13968;BME280;39536;52.198;9.920;2023-09-12T05:46:06;100443.09;;;22.14;100.00
13968;BME280;39536;52.198;9.920;2023-09-12T05:48:33;100442.13;;;22.16;100.00
13968;BME280;39536;52.198;9.920;2023-09-12T05:50:59;100445.88;;;22.13;100.00
13968;BME280;39536;52.198;9.920;2023-09-12T05:53:27;100457.00;;;22.18;100.00
13968;BME280;39536;52.198;9.920;2023-09-12T05:55:54;100456.13;;;22.18;100.00
13968;BME280;39536;52.198;9.920;2023-09-12T05:58:21;100452.75;;;22.16;100.00
13968;BME280;39536;52.198;9.920;2023-09-12T06:00:48;100462.41;;;22.17;100.00
13968;BME280;39536;52.198;9.920;2023-09-12T06:03:14;100474.59;;;22.19;100.00
13968;BME280;39536;52.198;9.920;2023-09-12T06:05:41;100475.09;;;22.02;100.00
13968;BME280;39536;52.198;9.920;2023-09-12T06:08:08;100487.28;;;22.04;100.00
13968;BME280;39536;52.198;9.920;2023-09-12T06:10:36;100507.66;;;21.92;100.00
13968;BME280;39536;52.198;9.920;2023-09-12T06:13:03;100507.94;;;21.78;100.00
13968;BME280;39536;52.198;9.920;2023-09-12T06:15:30;100519.78;;;21.52;100.00
13968;BME280;39536;52.198;9.920;2023-09-12T06:17:56;100521.22;;;21.44;100.00
13968;BME280;39536;52.198;9.920;2023-09-12T06:20:23;100533.03;;;21.40;100.00
13968;BME280;39536;52.198;9.920;2023-09-12T06:22:49;100525.00;;;21.18;100.00
13968;BME280;39536;52.198;9.920;2023-09-12T06:25:16;100525.00;;;21.07;100.00
13968;BME280;39536;52.198;9.920;2023-09-12T06:27:44;100499.44;;;20.83;100.00
13968;BME280;39536;52.198;9.920;2023-09-12T06:30:12;100476.09;;;20.88;100.00
13968;BME280;39536;52.198;9.920;2023-09-12T06:32:39;100460.38;;;20.51;100.00
13968;BME280;39536;52.198;9.920;2023-09-12T06:35:07;100477.97;;;20.64;100.00
13968;BME280;39536;52.198;9.920;2023-09-12T06:37:36;100513.19;;;20.88;100.00
13968;BME280;39536;52.198;9.920;2023-09-12T06:40:03;100495.16;;;21.05;100.00
13968;BME280;39536;52.198;9.920;2023-09-12T06:42:30;100461.56;;;21.16;100.00
13968;BME280;39536;52.198;9.920;2023-09-12T06:44:58;100427.09;;;21.28;100.00
13968;BME280;39536;52.198;9.920;2023-09-12T06:47:24;100388.69;;;21.33;100.00
13968;BME280;39536;52.198;9.920;2023-09-12T06:49:51;100392.09;;;21.35;100.00
13968;BME280;39536;52.198;9.920;2023-09-12T06:52:18;100402.66;;;21.24;100.00
13968;BME280;39536;52.198;9.920;2023-09-12T06:54:44;100408.44;;;21.29;100.00
13968;BME280;39536;52.198;9.920;2023-09-12T06:57:11;100417.38;;;21.39;100.00
13968;BME280;39536;52.198;9.920;2023-09-12T06:59:38;100430.38;;;21.54;100.00
13968;BME280;39536;52.198;9.920;2023-09-12T07:02:06;100427.81;;;21.63;100.00
13968;BME280;39536;52.198;9.920;2023-09-12T07:04:33;100409.59;;;21.70;100.00
13968;BME280;39536;52.198;9.920;2023-09-12T07:07:00;100390.47;;;21.66;100.00
13968;BME280;39536;52.198;9.920;2023-09-12T07:09:27;100386.50;;;21.61;100.00
13968;BME280;39536;52.198;9.920;2023-09-12T07:11:53;100368.06;;;21.59;100.00
13968;BME280;39536;52.198;9.920;2023-09-12T07:14:20;100348.06;;;21.55;100.00
13968;BME280;39536;52.198;9.920;2023-09-12T07:16:47;100341.84;;;21.45;100.00
13968;BME280;39536;52.198;9.920;2023-09-12T07:19:15;100342.56;;;21.47;100.00
13968;BME280;39536;52.198;9.920;2023-09-12T07:21:41;100340.88;;;21.46;100.00
13968;BME280;39536;52.198;9.920;2023-09-12T07:24:08;100340.41;;;21.41;100.00
13968;BME280;39536;52.198;9.920;2023-09-12T07:26:35;100346.31;;;21.44;100.00
13968;BME280;39536;52.198;9.920;2023-09-12T07:29:01;100348.78;;;21.57;100.00
13968;BME280;39536;52.198;9.920;2023-09-12T07:31:30;100348.78;;;21.57;100.00
13968;BME280;39536;52.198;9.920;2023-09-12T07:33:57;100353.44;;;21.76;100.00
13968;BME280;39536;52.198;9.920;2023-09-12T07:36:25;100355.06;;;21.88;100.00
13968;BME280;39536;52.198;9.920;2023-09-12T07:38:52;100352.63;;;21.97;100.00
13968;BME280;39536;52.198;9.920;2023-09-12T07:41:18;100355.22;;;22.08;100.00
13968;BME280;39536;52.198;9.920;2023-09-12T07:43:45;100348.31;;;22.17;100.00
13968;BME280;39536;52.198;9.920;2023-09-12T07:46:12;100346.19;;;22.31;100.00
13968;BME280;39536;52.198;9.920;2023-09-12T07:48:39;100338.75;;;22.46;100.00
13968;BME280;39536;52.198;9.920;2023-09-12T07:51:11;100337.53;;;22.60;100.00
13968;BME280;39536;52.198;9.920;2023-09-12T07:53:40;100325.41;;;22.67;100.00
13968;BME280;39536;52.198;9.920;2023-09-12T07:56:08;100327.53;;;22.73;100.00
13968;BME280;39536;52.198;9.920;2023-09-12T07:58:36;100337.09;;;22.86;100.00
13968;BME280;39536;52.198;9.920;2023-09-12T08:01:05;100334.66;;;22.94;100.00
13968;BME280;39536;52.198;9.920;2023-09-12T08:03:32;100330.47;;;23.01;100.00
13968;BME280;39536;52.198;9.920;2023-09-12T08:05:59;100345.03;;;23.07;100.00
13968;BME280;39536;52.198;9.920;2023-09-12T08:08:26;100347.88;;;23.15;100.00
13968;BME280;39536;52.198;9.920;2023-09-12T08:10:54;100355.00;;;23.24;100.00
13968;BME280;39536;52.198;9.920;2023-09-12T08:13:22;100356.97;;;23.32;100.00
13968;BME280;39536;52.198;9.920;2023-09-12T08:15:49;100364.53;;;23.36;100.00
13968;BME280;39536;52.198;9.920;2023-09-12T08:18:15;100370.09;;;23.23;100.00
13968;BME280;39536;52.198;9.920;2023-09-12T08:20:42;100382.84;;;23.29;100.00
13968;BME280;39536;52.198;9.920;2023-09-12T08:23:09;100384.84;;;23.37;100.00
13968;BME280;39536;52.198;9.920;2023-09-12T08:25:36;100388.72;;;23.33;100.00
13968;BME280;39536;52.198;9.920;2023-09-12T08:28:04;100395.59;;;23.36;100.00
13968;BME280;39536;52.198;9.920;2023-09-12T08:30:31;100408.59;;;23.29;100.00
13968;BME280;39536;52.198;9.920;2023-09-12T08:32:58;100421.41;;;23.14;100.00
13968;BME280;39536;52.198;9.920;2023-09-12T08:35:28;100437.72;;;23.00;100.00
13968;BME280;39536;52.198;9.920;2023-09-12T08:37:54;100458.75;;;22.92;100.00
13968;BME280;39536;52.198;9.920;2023-09-12T08:40:21;100463.50;;;22.67;100.00
13968;BME280;39536;52.198;9.920;2023-09-12T08:42:49;100477.91;;;22.32;100.00
13968;BME280;39536;52.198;9.920;2023-09-12T08:45:19;100491.25;;;22.10;100.00
13968;BME280;39536;52.198;9.920;2023-09-12T08:47:49;100503.06;;;22.06;100.00
13968;BME280;39536;52.198;9.920;2023-09-12T08:50:16;100503.25;;;21.82;100.00
13968;BME280;39536;52.198;9.920;2023-09-12T08:52:44;100506.50;;;21.74;100.00
13968;BME280;39536;52.198;9.920;2023-09-12T08:55:11;100509.28;;;21.61;100.00
13968;BME280;39536;52.198;9.920;2023-09-12T08:57:40;100506.03;;;21.69;100.00
13968;BME280;39536;52.198;9.920;2023-09-12T09:00:08;100517.38;;;21.60;100.00
13968;BME280;39536;52.198;9.920;2023-09-12T09:02:40;100522.53;;;21.84;100.00
13968;BME280;39536;52.198;9.920;2023-09-12T09:05:08;100513.00;;;21.81;100.00
13968;BME280;39536;52.198;9.920;2023-09-12T09:07:35;100526.13;;;21.83;100.00
13968;BME280;39536;52.198;9.920;2023-09-12T09:10:05;100529.53;;;21.85;100.00
13968;BME280;39536;52.198;9.920;2023-09-12T09:12:32;100527.66;;;22.08;100.00
13968;BME280;39536;52.198;9.920;2023-09-12T09:14:59;100536.59;;;22.07;100.00
13968;BME280;39536;52.198;9.920;2023-09-12T09:17:47;100545.25;;;22.20;100.00
13968;BME280;39536;52.198;9.920;2023-09-12T09:20:22;100550.06;;;22.26;100.00
13968;BME280;39536;52.198;9.920;2023-09-12T09:22:56;100563.19;;;22.39;100.00
13968;BME280;39536;52.198;9.920;2023-09-12T09:25:23;100562.00;;;22.64;100.00
13968;BME280;39536;52.198;9.920;2023-09-12T09:27:50;100563.09;;;22.62;100.00
13968;BME280;39536;52.198;9.920;2023-09-12T09:30:16;100563.56;;;22.67;100.00
13968;BME280;39536;52.198;9.920;2023-09-12T09:32:44;100568.88;;;22.34;100.00
13968;BME280;39536;52.198;9.920;2023-09-12T09:35:13;100554.88;;;22.65;100.00
13968;BME280;39536;52.198;9.920;2023-09-12T09:37:41;100539.84;;;22.54;100.00
13968;BME280;39536;52.198;9.920;2023-09-12T09:40:09;100543.84;;;22.80;100.00
13968;BME280;39536;52.198;9.920;2023-09-12T09:42:37;100538.16;;;23.06;100.00
13968;BME280;39536;52.198;9.920;2023-09-12T09:45:05;100536.97;;;22.99;100.00
13968;BME280;39536;52.198;9.920;2023-09-12T09:47:32;100539.22;;;22.82;100.00
13968;BME280;39536;52.198;9.920;2023-09-12T09:49:58;100536.50;;;22.73;100.00
13968;BME280;39536;52.198;9.920;2023-09-12T09:52:27;100531.22;;;22.62;100.00
13968;BME280;39536;52.198;9.920;2023-09-12T09:54:53;100531.41;;;22.49;100.00
13968;BME280;39536;52.198;9.920;2023-09-12T09:57:20;100537.03;;;22.34;100.00
13968;BME280;39536;52.198;9.920;2023-09-12T09:59:49;100531.25;;;22.29;100.00
13968;BME280;39536;52.198;9.920;2023-09-12T10:02:18;100530.91;;;22.23;100.00
13968;BME280;39536;52.198;9.920;2023-09-12T10:04:48;100522.50;;;22.06;100.00
13968;BME280;39536;52.198;9.920;2023-09-12T10:07:16;100522.00;;;22.12;100.00
13968;BME280;39536;52.198;9.920;2023-09-12T10:09:44;100514.97;;;22.11;100.00
13968;BME280;39536;52.198;9.920;2023-09-12T10:12:12;100522.13;;;22.22;100.00
13968;BME280;39536;52.198;9.920;2023-09-12T10:14:39;100507.84;;;22.34;100.00
13968;BME280;39536;52.198;9.920;2023-09-12T10:17:06;100518.13;;;22.28;100.00
13968;BME280;39536;52.198;9.920;2023-09-12T10:19:37;100526.31;;;22.25;100.00
13968;BME280;39536;52.198;9.920;2023-09-12T10:22:12;100527.78;;;22.18;100.00
13968;BME280;39536;52.198;9.920;2023-09-12T10:24:45;100500.63;;;22.25;100.00
13968;BME280;39536;52.198;9.920;2023-09-12T10:27:12;100508.69;;;22.24;100.00
13968;BME280;39536;52.198;9.920;2023-09-12T10:29:39;100499.88;;;22.34;100.00
13968;BME280;39536;52.198;9.920;2023-09-12T10:32:06;100494.31;;;22.38;100.00
13968;BME280;39536;52.198;9.920;2023-09-12T10:34:34;100494.16;;;22.71;100.00
13968;BME280;39536;52.198;9.920;2023-09-12T10:37:03;100502.81;;;22.73;100.00
13968;BME280;39536;52.198;9.920;2023-09-12T10:39:32;100499.78;;;22.78;100.00
13968;BME280;39536;52.198;9.920;2023-09-12T10:42:04;100505.16;;;22.67;100.00
13968;BME280;39536;52.198;9.920;2023-09-12T10:44:30;100505.03;;;22.68;100.00
13968;BME280;39536;52.198;9.920;2023-09-12T10:46:58;100506.50;;;22.61;100.00
13968;BME280;39536;52.198;9.920;2023-09-12T10:49:25;100511.56;;;22.64;100.00
13968;BME280;39536;52.198;9.920;2023-09-12T10:51:53;100512.81;;;22.49;100.00
13968;BME280;39536;52.198;9.920;2023-09-12T10:54:24;100521.34;;;22.31;100.00
13968;BME280;39536;52.198;9.920;2023-09-12T10:57:03;100522.72;;;22.03;100.00
13968;BME280;39536;52.198;9.920;2023-09-12T10:59:30;100519.25;;;21.91;100.00
13968;BME280;39536;52.198;9.920;2023-09-12T11:02:30;100512.38;;;22.00;100.00
13968;BME280;39536;52.198;9.920;2023-09-12T11:05:03;100526.72;;;22.09;100.00
13968;BME280;39536;52.198;9.920;2023-09-12T11:07:33;100533.22;;;22.05;100.00
13968;BME280;39536;52.198;9.920;2023-09-12T11:10:16;100529.72;;;21.93;100.00
13968;BME280;39536;52.198;9.920;2023-09-12T11:12:46;100521.91;;;21.91;100.00
13968;BME280;39536;52.198;9.920;2023-09-12T11:15:14;100519.03;;;21.72;100.00
13968;BME280;39536;52.198;9.920;2023-09-12T11:17:42;100533.97;;;21.73;100.00
13968;BME280;39536;52.198;9.920;2023-09-12T11:20:10;100526.66;;;21.65;100.00
13968;BME280;39536;52.198;9.920;2023-09-12T11:22:38;100524.09;;;21.75;100.00
13968;BME280;39536;52.198;9.920;2023-09-12T11:25:15;100537.84;;;21.69;100.00
13968;BME280;39536;52.198;9.920;2023-09-12T11:28:03;100538.56;;;21.60;100.00
13968;BME280;39536;52.198;9.920;2023-09-12T11:30:31;100553.03;;;21.56;100.00
13968;BME280;39536;52.198;9.920;2023-09-12T11:32:58;100550.63;;;21.41;100.00
13968;BME280;39536;52.198;9.920;2023-09-12T11:35:27;100576.09;;;21.20;100.00
13968;BME280;39536;52.198;9.920;2023-09-12T11:37:55;100580.38;;;21.45;100.00
13968;BME280;39536;52.198;9.920;2023-09-12T11:40:23;100565.53;;;21.31;100.00
13968;BME280;39536;52.198;9.920;2023-09-12T11:42:52;100574.22;;;21.44;100.00
13968;BME280;39536;52.198;9.920;2023-09-12T11:45:20;100563.25;;;21.49;100.00
13968;BME280;39536;52.198;9.920;2023-09-12T11:47:48;100570.16;;;21.63;100.00
13968;BME280;39536;52.198;9.920;2023-09-12T11:50:29;100576.66;;;21.59;100.00
13968;BME280;39536;52.198;9.920;2023-09-12T11:53:01;100583.63;;;21.49;100.00
13968;BME280;39536;52.198;9.920;2023-09-12T11:55:30;100586.28;;;21.49;100.00
13968;BME280;39536;52.198;9.920;2023-09-12T11:57:59;100575.44;;;21.52;100.00
13968;BME280;39536;52.198;9.920;2023-09-12T12:00:26;100575.78;;;21.58;100.00
13968;BME280;39536;52.198;9.920;2023-09-12T12:02:53;100573.41;;;21.66;100.00
13968;BME280;39536;52.198;9.920;2023-09-12T12:05:21;100576.41;;;21.62;100.00
13968;BME280;39536;52.198;9.920;2023-09-12T12:07:48;100551.59;;;21.63;100.00
13968;BME280;39536;52.198;9.920;2023-09-12T12:10:15;100545.53;;;21.83;100.00
13968;BME280;39536;52.198;9.920;2023-09-12T12:12:43;100505.81;;;22.16;100.00
13968;BME280;39536;52.198;9.920;2023-09-12T12:15:13;100505.34;;;22.54;100.00
13968;BME280;39536;52.198;9.920;2023-09-12T12:17:42;100507.50;;;22.81;100.00
13968;BME280;39536;52.198;9.920;2023-09-12T12:20:11;100511.03;;;23.02;100.00
13968;BME280;39536;52.198;9.920;2023-09-12T12:22:40;100496.00;;;23.22;100.00
13968;BME280;39536;52.198;9.920;2023-09-12T12:25:07;100480.31;;;23.50;100.00
13968;BME280;39536;52.198;9.920;2023-09-12T12:27:36;100466.81;;;23.72;100.00
13968;BME280;39536;52.198;9.920;2023-09-12T12:30:04;100443.72;;;23.83;100.00
13968;BME280;39536;52.198;9.920;2023-09-12T12:32:33;100407.75;;;23.69;100.00
13968;BME280;39536;52.198;9.920;2023-09-12T12:34:59;100376.44;;;23.42;100.00
13968;BME280;39536;52.198;9.920;2023-09-12T12:37:29;100352.06;;;23.27;100.00
13968;BME280;39536;52.198;9.920;2023-09-12T12:40:00;100368.16;;;23.25;100.00
13968;BME280;39536;52.198;9.920;2023-09-12T12:42:33;100402.22;;;23.11;100.00
13968;BME280;39536;52.198;9.920;2023-09-12T12:45:00;100414.34;;;22.94;100.00
13968;BME280;39536;52.198;9.920;2023-09-12T12:47:28;100427.03;;;22.90;100.00
13968;BME280;39536;52.198;9.920;2023-09-12T12:49:57;100450.94;;;22.69;100.00
13968;BME280;39536;52.198;9.920;2023-09-12T12:52:24;100455.84;;;22.32;100.00
13968;BME280;39536;52.198;9.920;2023-09-12T12:54:51;100472.66;;;22.21;100.00
13968;BME280;39536;52.198;9.920;2023-09-12T12:57:20;100456.69;;;22.32;100.00
13968;BME280;39536;52.198;9.920;2023-09-12T12:59:48;100442.50;;;22.11;100.00
13968;BME280;39536;52.198;9.920;2023-09-12T13:02:16;100432.47;;;22.14;100.00
13968;BME280;39536;52.198;9.920;2023-09-12T13:04:44;100410.50;;;22.24;100.00
13968;BME280;39536;52.198;9.920;2023-09-12T13:07:12;100420.94;;;22.36;100.00
13968;BME280;39536;52.198;9.920;2023-09-12T13:09:39;100418.22;;;22.27;100.00
13968;BME280;39536;52.198;9.920;2023-09-12T13:12:07;100427.09;;;22.05;100.00
13968;BME280;39536;52.198;9.920;2023-09-12T13:14:34;100416.81;;;22.44;100.00
13968;BME280;39536;52.198;9.920;2023-09-12T13:17:01;100413.44;;;22.83;100.00
13968;BME280;39536;52.198;9.920;2023-09-12T13:19:28;100414.34;;;23.34;100.00